createdAt,value
2023-09-22T00:00:42.805Z,97807.47
2023-09-22T00:03:10.177Z,97813.88
2023-09-22T00:05:36.905Z,97806.81
2023-09-22T00:08:04.795Z,97804.25
2023-09-22T00:10:31.611Z,97803.63
2023-09-22T00:12:58.739Z,97815.19
2023-09-22T00:15:25.180Z,97824.72
2023-09-22T00:17:51.849Z,97835.50
2023-09-22T00:20:19.689Z,97832.75
2023-09-22T00:22:46.088Z,97833.34
2023-09-22T00:25:13.598Z,97839.34
2023-09-22T00:27:40.301Z,97838.25
2023-09-22T00:30:09.888Z,97838.25
2023-09-22T00:32:36.797Z,97836.59
2023-09-22T00:35:05.049Z,97840.78
2023-09-22T00:37:31.473Z,97848.25
2023-09-22T00:39:58.021Z,97862.97
2023-09-22T00:42:25.057Z,97869.50
2023-09-22T00:44:51.640Z,97874.94
2023-09-22T00:47:18.543Z,97868.75
2023-09-22T00:49:49.545Z,97870.00
2023-09-22T00:52:19.822Z,97878.34
2023-09-22T00:54:47.863Z,97876.50
2023-09-22T00:57:14.318Z,97882.75
2023-09-22T00:59:41.285Z,97870.09
2023-09-22T01:02:07.826Z,97873.88
2023-09-22T01:04:35.307Z,97872.75
2023-09-22T01:07:01.937Z,97870.84
2023-09-22T01:09:28.840Z,97868.31
2023-09-22T01:11:55.295Z,97869.50
2023-09-22T01:14:22.577Z,97866.81
2023-09-22T01:16:52.189Z,97859.13
2023-09-22T01:19:20.249Z,97847.03
2023-09-22T01:21:50.782Z,97842.50
2023-09-22T01:24:17.517Z,97844.34
2023-09-22T01:26:44.201Z,97837.66
2023-09-22T01:29:10.706Z,97851.47
2023-09-22T01:31:37.670Z,97860.47
2023-09-22T01:34:04.711Z,97860.22
2023-09-22T01:36:31.318Z,97848.84
2023-09-22T01:38:59.043Z,97847.56
2023-09-22T01:41:25.763Z,97850.25
2023-09-22T01:43:52.207Z,97845.34
2023-09-22T01:46:18.945Z,97852.31
2023-09-22T01:48:45.701Z,97855.59
2023-09-22T01:51:12.335Z,97868.78
2023-09-22T01:53:40.212Z,97872.63
2023-09-22T01:56:07.704Z,97868.56
2023-09-22T01:58:34.119Z,97869.91
2023-09-22T02:01:00.918Z,97865.84
2023-09-22T02:03:27.992Z,97865.94
2023-09-22T02:05:54.758Z,97871.72
2023-09-22T02:08:21.341Z,97863.94
2023-09-22T02:10:48.682Z,97875.56
2023-09-22T02:13:15.145Z,97879.31
2023-09-22T02:15:41.617Z,97888.59
2023-09-22T02:18:09.257Z,97880.72
2023-09-22T02:20:36.438Z,97882.22
2023-09-22T02:23:03.595Z,97883.75
2023-09-22T02:25:30.186Z,97890.34
2023-09-22T02:27:58.446Z,97884.69
2023-09-22T02:30:25.828Z,97897.75
2023-09-22T02:32:52.498Z,97898.78
2023-09-22T02:35:22.456Z,97898.16
2023-09-22T02:37:49.006Z,97893.06
2023-09-22T02:40:16.010Z,97888.03
2023-09-22T02:42:44.331Z,97878.50
2023-09-22T02:45:11.707Z,97890.16
2023-09-22T02:47:40.143Z,97890.34
2023-09-22T02:50:11.265Z,97884.69
2023-09-22T02:52:43.738Z,97881.53
2023-09-22T02:55:13.046Z,97887.25
2023-09-22T02:57:39.987Z,97887.50
2023-09-22T03:00:18.989Z,97876.50
2023-09-22T03:02:45.841Z,97873.81
2023-09-22T03:05:15.806Z,97871.31
2023-09-22T03:07:42.824Z,97883.59
2023-09-22T03:10:11.650Z,97881.91
2023-09-22T03:12:39.339Z,97887.09
2023-09-22T03:15:07.279Z,97889.03
2023-09-22T03:17:33.862Z,97889.03
2023-09-22T03:20:00.485Z,97879.34
2023-09-22T03:22:27.390Z,97886.00
2023-09-22T03:24:54.126Z,97888.03
2023-09-22T03:27:21.094Z,97879.53
2023-09-22T03:29:47.558Z,97894.41
2023-09-22T03:32:15.229Z,97891.06
2023-09-22T03:34:41.767Z,97894.13
2023-09-22T03:37:10.858Z,97895.19
2023-09-22T03:39:37.402Z,97908.31
2023-09-22T03:42:04.505Z,97916.38
2023-09-22T03:44:32.027Z,97924.22
2023-09-22T03:46:58.510Z,97920.72
2023-09-22T03:49:25.189Z,97915.19
2023-09-22T03:51:52.112Z,97899.75
2023-09-22T03:54:19.351Z,97898.00
2023-09-22T03:56:46.641Z,97900.63
2023-09-22T03:59:13.298Z,97890.94
2023-09-22T04:01:40.039Z,97896.97
2023-09-22T04:04:06.887Z,97888.19
2023-09-22T04:06:33.411Z,97888.09
2023-09-22T04:08:59.917Z,97883.59
2023-09-22T04:11:26.539Z,97885.97
2023-09-22T04:13:52.921Z,97882.56
2023-09-22T04:16:20.199Z,97898.69
2023-09-22T04:18:47.519Z,97905.25
2023-09-22T04:21:14.202Z,97906.56
2023-09-22T04:23:46.657Z,97908.91
2023-09-22T04:26:13.392Z,97919.06
2023-09-22T04:28:39.862Z,97909.53
2023-09-22T04:31:11.359Z,97896.66
2023-09-22T04:33:37.995Z,97908.75
2023-09-22T04:36:04.583Z,97900.63
2023-09-22T04:38:31.193Z,97890.03
2023-09-22T04:40:58.069Z,97888.47
2023-09-22T04:43:25.102Z,97901.06
2023-09-22T04:45:51.633Z,97892.72
2023-09-22T04:48:18.478Z,97886.44
2023-09-22T04:50:53.154Z,97905.44
2023-09-22T04:53:19.701Z,97903.31
2023-09-22T04:55:46.983Z,97911.63
2023-09-22T04:58:15.598Z,97912.47
2023-09-22T05:00:42.035Z,97915.66
2023-09-22T05:03:09.156Z,97898.22
2023-09-22T05:05:35.906Z,97903.03
2023-09-22T05:08:02.365Z,97894.41
2023-09-22T05:10:29.182Z,97898.50
2023-09-22T05:12:55.761Z,97899.06
2023-09-22T05:15:22.442Z,97905.34
2023-09-22T05:17:49.017Z,97909.50
2023-09-22T05:20:16.167Z,97914.16
2023-09-22T05:22:43.697Z,97913.97
2023-09-22T05:25:11.857Z,97925.31
2023-09-22T05:27:38.287Z,97941.59
2023-09-22T05:30:07.734Z,97952.91
2023-09-22T05:32:34.458Z,97953.09
2023-09-22T05:35:01.093Z,97957.63
2023-09-22T05:37:27.913Z,97952.06
2023-09-22T05:39:54.509Z,97943.16
2023-09-22T05:42:21.086Z,97947.88
2023-09-22T05:44:47.723Z,97945.13
2023-09-22T05:47:14.200Z,97938.53
2023-09-22T05:49:40.799Z,97928.91
2023-09-22T05:52:07.245Z,97934.56
2023-09-22T05:54:34.040Z,97939.56
2023-09-22T05:57:00.626Z,97955.28
2023-09-22T05:59:30.113Z,97964.09
2023-09-22T06:01:58.418Z,97967.63
2023-09-22T06:04:26.033Z,97960.69
2023-09-22T06:06:54.571Z,97959.00
2023-09-22T06:09:22.900Z,97966.16
2023-09-22T06:11:50.435Z,97951.84
2023-09-22T06:14:17.077Z,97961.97
2023-09-22T06:16:43.853Z,97971.22
2023-09-22T06:19:11.473Z,97959.44
2023-09-22T06:21:39.380Z,97967.25
2023-09-22T06:24:07.568Z,97970.00
2023-09-22T06:26:34.699Z,97969.41
2023-09-22T06:29:01.234Z,97969.81
2023-09-22T06:31:27.860Z,97978.97
2023-09-22T06:33:54.655Z,97972.44
2023-09-22T06:36:23.984Z,97970.34
2023-09-22T06:38:51.470Z,97974.06
2023-09-22T06:41:21.921Z,97974.50
2023-09-22T06:43:53.974Z,97972.25
2023-09-22T06:46:26.476Z,97969.56
2023-09-22T06:48:53.368Z,97969.19
2023-09-22T06:51:20.136Z,97968.72
2023-09-22T06:53:48.978Z,97987.59
2023-09-22T06:56:15.546Z,97990.53
2023-09-22T06:58:42.206Z,97992.28
2023-09-22T07:01:13.147Z,97993.94
2023-09-22T07:03:44.499Z,97994.88
2023-09-22T07:06:14.213Z,98004.41
2023-09-22T07:08:40.730Z,97995.63
2023-09-22T07:11:12.049Z,98002.28
2023-09-22T07:13:41.428Z,97990.13
2023-09-22T07:16:08.977Z,97988.31
2023-09-22T07:18:35.600Z,97993.50
2023-09-22T07:21:03.204Z,98006.13
2023-09-22T07:23:32.532Z,97998.28
2023-09-22T07:26:00.551Z,98014.31
2023-09-22T07:28:28.149Z,98019.28
2023-09-22T07:30:55.126Z,98015.63
2023-09-22T07:33:22.600Z,98025.41
2023-09-22T07:35:50.699Z,98025.69
2023-09-22T07:38:19.229Z,98025.53
2023-09-22T07:40:45.971Z,98015.41
2023-09-22T07:43:12.976Z,98015.81
2023-09-22T07:45:40.824Z,98013.16
2023-09-22T07:48:07.661Z,98028.16
2023-09-22T07:50:36.126Z,98034.63
2023-09-22T07:53:04.030Z,98029.91
2023-09-22T07:55:31.298Z,98029.91
2023-09-22T07:57:58.482Z,98032.44
2023-09-22T08:00:27.138Z,98038.25
2023-09-22T08:02:54.328Z,98032.03
2023-09-22T08:05:21.749Z,98032.72
2023-09-22T08:07:50.872Z,98028.13
2023-09-22T08:10:24.262Z,98026.84
2023-09-22T08:12:51.274Z,98016.44
2023-09-22T08:15:17.991Z,98017.97
2023-09-22T08:17:47.408Z,98020.88
2023-09-22T08:20:15.311Z,98004.06
2023-09-22T08:22:45.197Z,98005.94
2023-09-22T08:25:11.912Z,98002.59
2023-09-22T08:27:39.807Z,98002.22
2023-09-22T08:30:16.988Z,98000.94
2023-09-22T08:32:45.557Z,98010.31
2023-09-22T08:35:18.480Z,98008.44
2023-09-22T08:37:45.441Z,98009.69
2023-09-22T08:40:16.721Z,98005.72
2023-09-22T08:42:45.293Z,98001.59
2023-09-22T08:45:12.894Z,98003.44
2023-09-22T08:47:41.709Z,98012.41
2023-09-22T08:50:20.042Z,97998.63
2023-09-22T08:52:50.382Z,97998.88
2023-09-22T08:55:17.572Z,97994.31
2023-09-22T08:57:47.492Z,98004.72
2023-09-22T09:00:22.751Z,97998.91
2023-09-22T09:02:53.531Z,97996.84
2023-09-22T09:05:25.361Z,97993.75
2023-09-22T09:07:53.320Z,97992.69
2023-09-22T09:10:50.070Z,97989.78
2023-09-22T09:13:21.306Z,97986.47
2023-09-22T09:15:50.599Z,97971.47
2023-09-22T09:18:22.219Z,97966.31
2023-09-22T09:21:06.753Z,97975.66
2023-09-22T09:23:33.562Z,97973.56
2023-09-22T09:26:00.838Z,97969.38
2023-09-22T09:28:27.412Z,97974.19
2023-09-22T09:30:55.889Z,97986.00
2023-09-22T09:33:24.830Z,97975.97
2023-09-22T09:35:52.730Z,97981.19
2023-09-22T09:38:21.391Z,97989.72
2023-09-22T09:40:51.943Z,97984.31
2023-09-22T09:43:18.558Z,97984.16
2023-09-22T09:45:50.455Z,97985.63
2023-09-22T09:48:19.388Z,97984.53
2023-09-22T09:50:52.221Z,97992.25
2023-09-22T09:53:43.717Z,97994.72
2023-09-22T09:56:14.521Z,97989.91
2023-09-22T09:58:42.319Z,97991.72
2023-09-22T10:01:09.455Z,98007.84
2023-09-22T10:03:40.931Z,97995.25
2023-09-22T10:06:12.219Z,97990.59
2023-09-22T10:08:41.556Z,97997.13
2023-09-22T10:11:12.149Z,98001.72
2023-09-22T10:13:39.864Z,97996.53
2023-09-22T10:16:12.513Z,97988.97
2023-09-22T10:18:51.955Z,97991.53
2023-09-22T10:21:30.695Z,97992.19
2023-09-22T10:24:16.797Z,97979.66
2023-09-22T10:26:55.657Z,97975.31
2023-09-22T10:29:34.371Z,97972.00
2023-09-22T10:32:17.006Z,97966.47
2023-09-22T10:34:48.196Z,97967.75
2023-09-22T10:37:19.254Z,97967.59
2023-09-22T10:39:55.181Z,97961.59
2023-09-22T10:42:22.886Z,97965.38
2023-09-22T10:44:57.068Z,97971.22
2023-09-22T10:47:23.980Z,97970.91
2023-09-22T10:49:50.403Z,97965.06
2023-09-22T10:52:18.356Z,97970.13
2023-09-22T10:54:48.168Z,97968.00
2023-09-22T10:57:28.760Z,97971.44
2023-09-22T10:59:56.729Z,97969.00
2023-09-22T11:02:28.045Z,97978.31
2023-09-22T11:04:55.780Z,97979.31
2023-09-22T11:07:35.115Z,97984.41
2023-09-22T11:10:02.263Z,97981.53
2023-09-22T11:12:29.044Z,97975.41
2023-09-22T11:14:56.546Z,97973.88
2023-09-22T11:17:23.347Z,97974.72
2023-09-22T11:19:54.835Z,97970.19
2023-09-22T11:22:22.289Z,97977.09
2023-09-22T11:24:48.935Z,97977.88
2023-09-22T11:27:17.285Z,97979.56
2023-09-22T11:29:43.800Z,97985.00
2023-09-22T11:32:10.436Z,97984.09
2023-09-22T11:35:11.551Z,97975.22
2023-09-22T11:37:36.209Z,97972.84
2023-09-22T11:40:14.163Z,97976.03
2023-09-22T11:42:47.245Z,97976.75
2023-09-22T11:45:21.011Z,97983.72
2023-09-22T11:47:47.818Z,97980.63
2023-09-22T11:50:27.524Z,97975.31
2023-09-22T11:53:18.823Z,97974.41
2023-09-22T11:55:48.431Z,97982.72
2023-09-22T11:58:18.144Z,97988.34
2023-09-22T12:00:44.725Z,97977.09
2023-09-22T12:03:11.244Z,97974.03
2023-09-22T12:05:38.184Z,97982.63
2023-09-22T12:08:09.681Z,97983.94
2023-09-22T12:10:36.285Z,97981.56
2023-09-22T12:13:03.562Z,97986.78
2023-09-22T12:15:30.721Z,97978.19
2023-09-22T12:17:57.255Z,97991.09
2023-09-22T12:20:23.804Z,97993.66
2023-09-22T12:22:50.284Z,97990.16
2023-09-22T12:25:16.902Z,97986.22
2023-09-22T12:27:43.364Z,97985.47
2023-09-22T12:30:10.553Z,97987.28
2023-09-22T12:32:37.139Z,97988.34
2023-09-22T12:35:06.005Z,97989.75
2023-09-22T12:37:34.880Z,97992.47
2023-09-22T12:40:03.113Z,98000.41
2023-09-22T12:42:29.639Z,98000.81
2023-09-22T12:44:56.032Z,98011.78
2023-09-22T12:47:23.639Z,97996.38
2023-09-22T12:49:50.228Z,97997.94
2023-09-22T12:52:17.102Z,97991.28
2023-09-22T12:54:43.642Z,97988.72
2023-09-22T12:57:10.134Z,97974.16
2023-09-22T12:59:36.742Z,97979.84
2023-09-22T13:02:03.281Z,97978.19
2023-09-22T13:04:31.956Z,97967.78
2023-09-22T13:06:59.388Z,97968.69
2023-09-22T13:09:30.872Z,97964.28
2023-09-22T13:11:57.348Z,97968.13
2023-09-22T13:14:23.842Z,97969.72
2023-09-22T13:16:51.164Z,97967.31
2023-09-22T13:19:17.716Z,97963.19
2023-09-22T13:21:44.194Z,97973.41
2023-09-22T13:24:10.623Z,97976.88
2023-09-22T13:26:37.151Z,97979.66
2023-09-22T13:29:03.604Z,97967.69
2023-09-22T13:31:31.186Z,97962.78
2023-09-22T13:33:58.209Z,97949.81
2023-09-22T13:36:25.080Z,97951.13
2023-09-22T13:38:53.089Z,97944.75
2023-09-22T13:41:19.958Z,97940.88
2023-09-22T13:43:46.790Z,97951.63
2023-09-22T13:46:14.851Z,97940.94
2023-09-22T13:48:42.330Z,97946.16
2023-09-22T13:51:09.946Z,97943.31
2023-09-22T13:53:36.601Z,97937.16
2023-09-22T13:56:03.354Z,97940.84
2023-09-22T13:58:29.983Z,97941.44
2023-09-22T14:00:57.209Z,97947.59
2023-09-22T14:03:26.133Z,97938.03
2023-09-22T14:05:52.620Z,97949.00
2023-09-22T14:08:19.602Z,97942.97
2023-09-22T14:10:46.534Z,97938.59
2023-09-22T14:13:13.154Z,97942.50
2023-09-22T14:15:39.740Z,97944.53
2023-09-22T14:18:06.712Z,97940.94
2023-09-22T14:20:33.274Z,97936.53
2023-09-22T14:23:00.571Z,97937.50
2023-09-22T14:25:27.067Z,97932.91
2023-09-22T14:27:54.984Z,97925.59
2023-09-22T14:30:21.935Z,97925.34
2023-09-22T14:32:48.625Z,97929.25
2023-09-22T14:35:15.135Z,97926.88
2023-09-22T14:37:42.067Z,97922.84
2023-09-22T14:40:08.861Z,97940.28
2023-09-22T14:42:35.990Z,97940.69
2023-09-22T14:45:03.360Z,97935.94
2023-09-22T14:47:29.918Z,97938.03
2023-09-22T14:49:56.638Z,97939.41
2023-09-22T14:52:23.244Z,97943.03
2023-09-22T14:54:49.797Z,97949.25
2023-09-22T14:57:16.244Z,97950.16
2023-09-22T14:59:42.658Z,97937.72
2023-09-22T15:02:09.147Z,97937.50
2023-09-22T15:04:36.730Z,97949.31
2023-09-22T15:07:04.002Z,97939.88
2023-09-22T15:09:31.604Z,97946.59
2023-09-22T15:11:58.577Z,97946.13
2023-09-22T15:14:27.078Z,97933.69
2023-09-22T15:16:53.543Z,97948.78
2023-09-22T15:19:20.585Z,97945.03
2023-09-22T15:21:47.020Z,97957.19
2023-09-22T15:24:13.545Z,97969.75
2023-09-22T15:26:40.380Z,97965.66
2023-09-22T15:29:07.076Z,97962.41
2023-09-22T15:31:34.673Z,97973.47
2023-09-22T15:34:01.413Z,97985.41
2023-09-22T15:36:27.834Z,97980.09
2023-09-22T15:38:54.429Z,97987.22
2023-09-22T15:41:20.927Z,97996.41
2023-09-22T15:43:47.716Z,97995.22
2023-09-22T15:46:14.269Z,98000.06
2023-09-22T15:48:41.047Z,97999.66
2023-09-22T15:51:07.502Z,97998.97
2023-09-22T15:53:36.759Z,98009.41
2023-09-22T15:56:04.744Z,98029.47
2023-09-22T15:58:31.598Z,98039.53
2023-09-22T16:00:58.239Z,98047.66
2023-09-22T16:03:25.095Z,98057.94
2023-09-22T16:05:51.747Z,98076.53
2023-09-22T16:08:19.370Z,98090.72
2023-09-22T16:10:46.017Z,98100.84
2023-09-22T16:13:26.416Z,98115.00
2023-09-22T16:16:00.284Z,98120.25
2023-09-22T16:18:26.912Z,98115.06
2023-09-22T16:20:53.457Z,98113.94
2023-09-22T16:23:20.125Z,98121.72
2023-09-22T16:25:48.504Z,98121.31
2023-09-22T16:28:16.111Z,98124.19
2023-09-22T16:30:42.924Z,98127.69
2023-09-22T16:33:09.539Z,98125.19
2023-09-22T16:35:35.962Z,98120.78
2023-09-22T16:38:02.580Z,98124.41
2023-09-22T16:40:29.751Z,98109.22
2023-09-22T16:42:57.812Z,98111.47
2023-09-22T16:45:24.249Z,98096.44
2023-09-22T16:47:50.843Z,98086.81
2023-09-22T16:50:20.249Z,98095.56
2023-09-22T16:52:46.969Z,98115.38
2023-09-22T16:55:13.522Z,98106.72
2023-09-22T16:57:40.004Z,98113.19
2023-09-22T17:00:06.814Z,98115.72
2023-09-22T17:02:33.723Z,98099.69
2023-09-22T17:05:00.654Z,98107.78
2023-09-22T17:07:28.043Z,98112.16
2023-09-22T17:09:54.655Z,98113.38
2023-09-22T17:12:21.041Z,98124.78
2023-09-22T17:14:47.463Z,98127.31
2023-09-22T17:17:15.148Z,98124.59
2023-09-22T17:19:42.067Z,98134.47
2023-09-22T17:22:08.485Z,98141.63
2023-09-22T17:24:34.980Z,98143.19
2023-09-22T17:27:01.853Z,98142.59
2023-09-22T17:29:28.401Z,98145.66
2023-09-22T17:31:58.096Z,98147.97
2023-09-22T17:34:24.844Z,98145.47
2023-09-22T17:36:51.267Z,98147.91
2023-09-22T17:39:20.854Z,98152.84
2023-09-22T17:41:47.258Z,98165.88
2023-09-22T17:44:14.926Z,98150.72
2023-09-22T17:46:41.450Z,98171.13
2023-09-22T17:49:09.815Z,98159.63
2023-09-22T17:51:36.283Z,98171.25
2023-09-22T17:54:02.780Z,98180.28
2023-09-22T17:56:29.250Z,98182.69
2023-09-22T17:58:55.815Z,98184.66
2023-09-22T18:01:22.376Z,98185.91
2023-09-22T18:03:49.347Z,98182.84
2023-09-22T18:06:15.967Z,98182.16
2023-09-22T18:08:42.358Z,98190.38
2023-09-22T18:11:08.948Z,98183.56
2023-09-22T18:13:37.980Z,98194.34
2023-09-22T18:16:04.737Z,98197.31
2023-09-22T18:18:32.080Z,98196.22
2023-09-22T18:20:59.590Z,98186.56
2023-09-22T18:23:27.138Z,98194.63
2023-09-22T18:26:01.027Z,98204.56
2023-09-22T18:28:28.796Z,98209.38
2023-09-22T18:30:56.568Z,98198.72
2023-09-22T18:33:23.124Z,98201.78
2023-09-22T18:35:54.222Z,98208.66
2023-09-22T18:38:21.024Z,98215.81
2023-09-22T18:40:48.815Z,98224.34
2023-09-22T18:43:15.421Z,98229.25
2023-09-22T18:45:42.229Z,98232.81
2023-09-22T18:48:11.120Z,98236.13
2023-09-22T18:50:38.035Z,98234.47
2023-09-22T18:53:07.542Z,98236.25
2023-09-22T18:55:34.217Z,98232.13
2023-09-22T18:58:00.660Z,98231.59
2023-09-22T19:00:27.078Z,98235.94
2023-09-22T19:02:53.760Z,98234.16
2023-09-22T19:05:23.123Z,98230.72
2023-09-22T19:07:49.777Z,98231.75
2023-09-22T19:10:16.269Z,98237.81
2023-09-22T19:12:43.541Z,98233.06
2023-09-22T19:15:10.548Z,98229.53
2023-09-22T19:17:38.164Z,98236.75
2023-09-22T19:20:07.039Z,98242.16
2023-09-22T19:22:34.180Z,98237.72
2023-09-22T19:25:01.285Z,98246.06
2023-09-22T19:27:27.816Z,98254.69
2023-09-22T19:29:54.237Z,98257.56
2023-09-22T19:32:21.935Z,98257.84
2023-09-22T19:34:49.427Z,98258.25
2023-09-22T19:37:16.702Z,98259.72
2023-09-22T19:39:43.634Z,98263.59
2023-09-22T19:42:11.666Z,98267.69
2023-09-22T19:44:38.510Z,98273.28
2023-09-22T19:47:05.190Z,98279.38
2023-09-22T19:49:31.686Z,98276.09
2023-09-22T19:51:58.217Z,98276.75
2023-09-22T19:54:24.776Z,98278.81
2023-09-22T19:56:51.960Z,98290.88
2023-09-22T19:59:18.599Z,98292.44
2023-09-22T20:01:45.085Z,98296.75
2023-09-22T20:04:12.091Z,98301.13
2023-09-22T20:06:38.650Z,98311.13
2023-09-22T20:09:10.180Z,98318.06
2023-09-22T20:11:38.274Z,98326.31
2023-09-22T20:14:05.484Z,98335.47
2023-09-22T20:16:35.007Z,98326.84
2023-09-22T20:19:03.958Z,98348.47
2023-09-22T20:21:31.189Z,98340.28
2023-09-22T20:23:57.905Z,98348.44
2023-09-22T20:26:24.694Z,98360.03
2023-09-22T20:28:53.494Z,98369.38
2023-09-22T20:31:20.352Z,98365.16
2023-09-22T20:33:47.071Z,98367.69
2023-09-22T20:36:13.903Z,98371.50
2023-09-22T20:38:46.944Z,98374.50
2023-09-22T20:41:13.711Z,98379.53
2023-09-22T20:43:42.171Z,98380.34
2023-09-22T20:46:10.139Z,98381.69
2023-09-22T20:48:37.392Z,98387.91
2023-09-22T20:51:06.414Z,98387.19
2023-09-22T20:53:34.243Z,98388.84
2023-09-22T20:56:00.736Z,98390.88
2023-09-22T20:58:28.500Z,98386.34
2023-09-22T21:01:00.777Z,98394.59
2023-09-22T21:03:28.815Z,98401.00
2023-09-22T21:05:55.597Z,98404.28
2023-09-22T21:08:22.469Z,98404.34
2023-09-22T21:10:50.524Z,98407.34
2023-09-22T21:13:20.505Z,98403.50
2023-09-22T21:15:56.779Z,98408.72
2023-09-22T21:18:25.040Z,98405.03
2023-09-22T21:20:52.075Z,98408.47
2023-09-22T21:23:18.886Z,98404.25
2023-09-22T21:25:48.684Z,98415.19
2023-09-22T21:28:15.785Z,98412.41
2023-09-22T21:30:43.324Z,98413.63
2023-09-22T21:33:11.331Z,98426.06
2023-09-22T21:35:38.622Z,98422.50
2023-09-22T21:38:05.475Z,98422.25
2023-09-22T21:40:32.378Z,98436.88
2023-09-22T21:43:00.537Z,98441.41
2023-09-22T21:45:27.977Z,98440.72
2023-09-22T21:47:54.792Z,98444.13
2023-09-22T21:50:21.374Z,98450.88
2023-09-22T21:52:48.163Z,98451.72
2023-09-22T21:55:14.678Z,98454.06
2023-09-22T21:57:41.339Z,98458.13
2023-09-22T22:00:13.573Z,98469.53
2023-09-22T22:02:40.753Z,98479.66
2023-09-22T22:05:13.844Z,98483.00
2023-09-22T22:07:41.214Z,98488.53
2023-09-22T22:10:09.496Z,98489.81
2023-09-22T22:12:36.035Z,98498.06
2023-09-22T22:15:04.147Z,98494.19
2023-09-22T22:17:30.632Z,98494.69
2023-09-22T22:19:57.200Z,98498.91
2023-09-22T22:22:24.182Z,98502.22
2023-09-22T22:24:50.731Z,98507.28
2023-09-22T22:27:21.645Z,98507.09
2023-09-22T22:29:49.468Z,98515.19
2023-09-22T22:32:19.761Z,98505.63
2023-09-22T22:34:47.780Z,98503.41
2023-09-22T22:37:15.691Z,98523.25
2023-09-22T22:39:43.117Z,98522.59
2023-09-22T22:42:10.748Z,98514.69
2023-09-22T22:44:40.917Z,98513.00
2023-09-22T22:47:13.773Z,98518.72
2023-09-22T22:49:40.817Z,98528.63
2023-09-22T22:52:08.684Z,98531.47
2023-09-22T22:54:39.086Z,98537.06
2023-09-22T22:57:06.685Z,98532.69
2023-09-22T22:59:36.202Z,98525.97
2023-09-22T23:02:04.751Z,98529.19
2023-09-22T23:04:32.420Z,98526.16
2023-09-22T23:06:59.050Z,98532.03
2023-09-22T23:09:25.911Z,98532.19
2023-09-22T23:11:55.827Z,98538.09
2023-09-22T23:14:25.747Z,98545.66
2023-09-22T23:16:52.823Z,98548.16
2023-09-22T23:19:19.869Z,98553.06
2023-09-22T23:21:47.417Z,98558.59
2023-09-22T23:24:14.714Z,98555.06
2023-09-22T23:26:44.802Z,98557.75
2023-09-22T23:29:14.540Z,98564.63
2023-09-22T23:31:42.070Z,98575.06
2023-09-22T23:34:11.835Z,98581.97
2023-09-22T23:36:40.143Z,98586.16
2023-09-22T23:39:09.000Z,98593.88
2023-09-22T23:41:39.496Z,98592.88
2023-09-22T23:44:08.943Z,98602.81
2023-09-22T23:46:36.091Z,98604.47
2023-09-22T23:49:07.321Z,98612.19
2023-09-22T23:51:34.244Z,98610.84
2023-09-22T23:54:02.970Z,98604.47
2023-09-22T23:56:30.317Z,98620.59
2023-09-22T23:58:57.065Z,98619.44
